sensor_id;sensor_type;location;lat;lon;timestamp;temperature;humidity
5683;DHT22;2864;49.220;8.654;2023-07-24T00:00:14;19.60;82.10
5683;DHT22;2864;49.220;8.654;2023-07-24T00:02:40;19.60;83.20
5683;DHT22;2864;49.220;8.654;2023-07-24T00:05:05;19.50;83.50
5683;DHT22;2864;49.220;8.654;2023-07-24T00:07:31;19.30;84.10
5683;DHT22;2864;49.220;8.654;2023-07-24T00:09:57;19.30;85.20
5683;DHT22;2864;49.220;8.654;2023-07-24T00:12:22;19.20;86.00
5683;DHT22;2864;49.220;8.654;2023-07-24T00:14:48;19.10;86.80
5683;DHT22;2864;49.220;8.654;2023-07-24T00:17:14;19.00;87.20
5683;DHT22;2864;49.220;8.654;2023-07-24T00:19:39;18.90;88.50
5683;DHT22;2864;49.220;8.654;2023-07-24T00:22:05;18.80;89.70
5683;DHT22;2864;49.220;8.654;2023-07-24T00:24:31;18.80;90.20
5683;DHT22;2864;49.220;8.654;2023-07-24T00:26:57;18.80;90.60
5683;DHT22;2864;49.220;8.654;2023-07-24T00:29:23;18.60;91.20
5683;DHT22;2864;49.220;8.654;2023-07-24T00:31:49;18.50;91.40
5683;DHT22;2864;49.220;8.654;2023-07-24T00:34:14;18.50;91.90
5683;DHT22;2864;49.220;8.654;2023-07-24T00:36:40;18.40;92.30
5683;DHT22;2864;49.220;8.654;2023-07-24T00:39:06;18.40;92.80
5683;DHT22;2864;49.220;8.654;2023-07-24T00:41:31;18.30;93.30
5683;DHT22;2864;49.220;8.654;2023-07-24T00:43:57;18.50;94.00
5683;DHT22;2864;49.220;8.654;2023-07-24T00:46:23;18.20;94.40
5683;DHT22;2864;49.220;8.654;2023-07-24T00:48:49;18.20;94.90
5683;DHT22;2864;49.220;8.654;2023-07-24T00:51:15;18.20;95.50
5683;DHT22;2864;49.220;8.654;2023-07-24T00:53:41;18.00;96.00
5683;DHT22;2864;49.220;8.654;2023-07-24T00:56:07;17.90;96.80
5683;DHT22;2864;49.220;8.654;2023-07-24T00:58:33;17.90;97.60
5683;DHT22;2864;49.220;8.654;2023-07-24T01:01:01;18.80;98.60
5683;DHT22;2864;49.220;8.654;2023-07-24T01:03:33;17.70;98.80
5683;DHT22;2864;49.220;8.654;2023-07-24T01:06:01;17.70;99.30
5683;DHT22;2864;49.220;8.654;2023-07-24T01:08:27;17.60;99.80
5683;DHT22;2864;49.220;8.654;2023-07-24T01:10:53;17.60;99.90
5683;DHT22;2864;49.220;8.654;2023-07-24T01:13:22;17.60;99.90
5683;DHT22;2864;49.220;8.654;2023-07-24T01:15:58;17.60;99.90
5683;DHT22;2864;49.220;8.654;2023-07-24T01:18:28;17.50;99.90
5683;DHT22;2864;49.220;8.654;2023-07-24T01:20:57;17.50;99.90
5683;DHT22;2864;49.220;8.654;2023-07-24T01:23:45;17.40;99.90
5683;DHT22;2864;49.220;8.654;2023-07-24T01:26:16;17.50;99.90
5683;DHT22;2864;49.220;8.654;2023-07-24T01:28:42;17.40;99.90
5683;DHT22;2864;49.220;8.654;2023-07-24T01:31:07;17.40;99.90
5683;DHT22;2864;49.220;8.654;2023-07-24T01:33:33;17.40;99.90
5683;DHT22;2864;49.220;8.654;2023-07-24T01:36:02;17.40;99.90
5683;DHT22;2864;49.220;8.654;2023-07-24T01:38:28;17.40;99.90
5683;DHT22;2864;49.220;8.654;2023-07-24T01:40:56;17.40;99.90
5683;DHT22;2864;49.220;8.654;2023-07-24T01:43:22;17.50;99.90
5683;DHT22;2864;49.220;8.654;2023-07-24T01:45:48;17.50;99.90
5683;DHT22;2864;49.220;8.654;2023-07-24T01:48:13;17.50;99.90
5683;DHT22;2864;49.220;8.654;2023-07-24T01:50:39;18.20;99.90
5683;DHT22;2864;49.220;8.654;2023-07-24T01:53:04;17.60;99.90
5683;DHT22;2864;49.220;8.654;2023-07-24T01:55:30;17.60;99.90
5683;DHT22;2864;49.220;8.654;2023-07-24T01:57:55;17.70;99.90
5683;DHT22;2864;49.220;8.654;2023-07-24T02:00:21;19.40;99.90
5683;DHT22;2864;49.220;8.654;2023-07-24T02:02:46;17.80;99.90
5683;DHT22;2864;49.220;8.654;2023-07-24T02:05:12;17.80;99.90
5683;DHT22;2864;49.220;8.654;2023-07-24T02:07:38;17.80;99.90
5683;DHT22;2864;49.220;8.654;2023-07-24T02:10:03;17.80;99.90
5683;DHT22;2864;49.220;8.654;2023-07-24T02:12:29;17.80;99.90
5683;DHT22;2864;49.220;8.654;2023-07-24T02:14:54;18.10;99.90
5683;DHT22;2864;49.220;8.654;2023-07-24T02:17:20;17.70;99.90
5683;DHT22;2864;49.220;8.654;2023-07-24T02:19:46;17.80;99.90
5683;DHT22;2864;49.220;8.654;2023-07-24T02:22:11;17.70;99.90
5683;DHT22;2864;49.220;8.654;2023-07-24T02:24:37;17.80;99.90
5683;DHT22;2864;49.220;8.654;2023-07-24T02:27:04;17.70;99.90
5683;DHT22;2864;49.220;8.654;2023-07-24T02:29:29;17.70;99.90
5683;DHT22;2864;49.220;8.654;2023-07-24T02:31:55;18.70;99.90
5683;DHT22;2864;49.220;8.654;2023-07-24T02:34:21;17.70;99.90
5683;DHT22;2864;49.220;8.654;2023-07-24T02:36:52;17.90;99.90
5683;DHT22;2864;49.220;8.654;2023-07-24T02:39:18;17.80;99.90
5683;DHT22;2864;49.220;8.654;2023-07-24T02:41:44;17.80;99.90
5683;DHT22;2864;49.220;8.654;2023-07-24T02:44:10;17.80;99.90
5683;DHT22;2864;49.220;8.654;2023-07-24T02:46:36;18.20;99.90
5683;DHT22;2864;49.220;8.654;2023-07-24T02:49:01;17.80;99.90
5683;DHT22;2864;49.220;8.654;2023-07-24T02:51:27;17.80;99.90
5683;DHT22;2864;49.220;8.654;2023-07-24T02:53:54;17.80;99.90
5683;DHT22;2864;49.220;8.654;2023-07-24T02:56:19;19.40;99.90
5683;DHT22;2864;49.220;8.654;2023-07-24T02:58:46;17.80;99.90
5683;DHT22;2864;49.220;8.654;2023-07-24T03:01:11;17.80;99.90
5683;DHT22;2864;49.220;8.654;2023-07-24T03:03:42;18.50;99.90
5683;DHT22;2864;49.220;8.654;2023-07-24T03:06:08;17.70;99.90
5683;DHT22;2864;49.220;8.654;2023-07-24T03:08:34;18.00;99.90
5683;DHT22;2864;49.220;8.654;2023-07-24T03:10:59;17.90;99.90
5683;DHT22;2864;49.220;8.654;2023-07-24T03:13:25;18.00;99.90
5683;DHT22;2864;49.220;8.654;2023-07-24T03:15:55;17.80;99.90
5683;DHT22;2864;49.220;8.654;2023-07-24T03:18:21;17.90;99.90
5683;DHT22;2864;49.220;8.654;2023-07-24T03:20:47;17.90;99.90
5683;DHT22;2864;49.220;8.654;2023-07-24T03:23:13;17.80;99.90
5683;DHT22;2864;49.220;8.654;2023-07-24T03:25:39;17.80;99.90
5683;DHT22;2864;49.220;8.654;2023-07-24T03:28:04;17.80;99.90
5683;DHT22;2864;49.220;8.654;2023-07-24T03:30:30;17.80;99.90
5683;DHT22;2864;49.220;8.654;2023-07-24T03:32:56;17.90;99.90
5683;DHT22;2864;49.220;8.654;2023-07-24T03:35:21;18.00;99.90
5683;DHT22;2864;49.220;8.654;2023-07-24T03:37:47;17.90;99.90
5683;DHT22;2864;49.220;8.654;2023-07-24T03:40:12;17.90;99.90
5683;DHT22;2864;49.220;8.654;2023-07-24T03:42:39;17.90;99.90
5683;DHT22;2864;49.220;8.654;2023-07-24T03:45:05;18.00;99.90
5683;DHT22;2864;49.220;8.654;2023-07-24T03:47:31;18.00;99.90
5683;DHT22;2864;49.220;8.654;2023-07-24T03:49:56;18.10;99.90
5683;DHT22;2864;49.220;8.654;2023-07-24T03:52:22;18.20;99.90
5683;DHT22;2864;49.220;8.654;2023-07-24T03:54:47;18.90;99.90
5683;DHT22;2864;49.220;8.654;2023-07-24T03:57:13;18.20;99.90
5683;DHT22;2864;49.220;8.654;2023-07-24T03:59:38;20.20;99.90
5683;DHT22;2864;49.220;8.654;2023-07-24T04:02:04;18.30;99.90
5683;DHT22;2864;49.220;8.654;2023-07-24T04:04:30;18.40;99.90
5683;DHT22;2864;49.220;8.654;2023-07-24T04:06:56;18.40;99.90
5683;DHT22;2864;49.220;8.654;2023-07-24T04:09:21;18.40;99.90
5683;DHT22;2864;49.220;8.654;2023-07-24T04:11:47;18.40;99.90
5683;DHT22;2864;49.220;8.654;2023-07-24T04:14:13;18.40;99.90
5683;DHT22;2864;49.220;8.654;2023-07-24T04:16:38;18.40;99.90
5683;DHT22;2864;49.220;8.654;2023-07-24T04:19:04;18.40;99.90
5683;DHT22;2864;49.220;8.654;2023-07-24T04:21:29;18.40;99.90
5683;DHT22;2864;49.220;8.654;2023-07-24T04:23:55;18.40;99.90
5683;DHT22;2864;49.220;8.654;2023-07-24T04:26:20;18.40;99.90
5683;DHT22;2864;49.220;8.654;2023-07-24T04:28:46;18.90;99.90
5683;DHT22;2864;49.220;8.654;2023-07-24T04:31:11;18.40;99.90
5683;DHT22;2864;49.220;8.654;2023-07-24T04:33:38;18.50;99.90
5683;DHT22;2864;49.220;8.654;2023-07-24T04:36:04;18.50;99.90
5683;DHT22;2864;49.220;8.654;2023-07-24T04:38:30;18.50;99.90
5683;DHT22;2864;49.220;8.654;2023-07-24T04:40:55;18.50;99.90
5683;DHT22;2864;49.220;8.654;2023-07-24T04:43:21;18.60;99.90
5683;DHT22;2864;49.220;8.654;2023-07-24T04:45:46;18.60;99.90
5683;DHT22;2864;49.220;8.654;2023-07-24T04:48:12;18.60;99.90
5683;DHT22;2864;49.220;8.654;2023-07-24T04:50:37;18.60;99.90
5683;DHT22;2864;49.220;8.654;2023-07-24T04:53:03;18.80;99.90
5683;DHT22;2864;49.220;8.654;2023-07-24T04:55:29;18.80;99.90
5683;DHT22;2864;49.220;8.654;2023-07-24T04:57:54;18.90;99.90
5683;DHT22;2864;49.220;8.654;2023-07-24T05:00:20;19.00;99.90
5683;DHT22;2864;49.220;8.654;2023-07-24T05:02:45;19.00;99.90
5683;DHT22;2864;49.220;8.654;2023-07-24T05:05:11;19.10;99.90
5683;DHT22;2864;49.220;8.654;2023-07-24T05:07:36;19.20;99.90
5683;DHT22;2864;49.220;8.654;2023-07-24T05:10:02;19.30;99.90
5683;DHT22;2864;49.220;8.654;2023-07-24T05:12:27;19.30;99.90
5683;DHT22;2864;49.220;8.654;2023-07-24T05:14:53;19.30;99.90
5683;DHT22;2864;49.220;8.654;2023-07-24T05:17:18;20.80;99.90
5683;DHT22;2864;49.220;8.654;2023-07-24T05:19:44;19.40;99.90
5683;DHT22;2864;49.220;8.654;2023-07-24T05:22:09;19.40;99.90
5683;DHT22;2864;49.220;8.654;2023-07-24T05:24:36;19.50;99.90
5683;DHT22;2864;49.220;8.654;2023-07-24T05:27:02;19.50;99.90
5683;DHT22;2864;49.220;8.654;2023-07-24T05:29:28;19.50;99.90
5683;DHT22;2864;49.220;8.654;2023-07-24T05:31:53;19.50;99.90
5683;DHT22;2864;49.220;8.654;2023-07-24T05:34:19;19.50;99.90
5683;DHT22;2864;49.220;8.654;2023-07-24T05:36:44;19.60;99.90
5683;DHT22;2864;49.220;8.654;2023-07-24T05:39:10;19.70;99.90
5683;DHT22;2864;49.220;8.654;2023-07-24T05:41:35;19.70;99.90
5683;DHT22;2864;49.220;8.654;2023-07-24T05:44:01;19.70;99.90
5683;DHT22;2864;49.220;8.654;2023-07-24T05:46:26;19.80;99.90
5683;DHT22;2864;49.220;8.654;2023-07-24T05:48:52;19.90;99.90
5683;DHT22;2864;49.220;8.654;2023-07-24T05:51:17;19.90;99.90
5683;DHT22;2864;49.220;8.654;2023-07-24T05:53:43;20.00;99.90
5683;DHT22;2864;49.220;8.654;2023-07-24T05:56:08;20.00;99.90
5683;DHT22;2864;49.220;8.654;2023-07-24T05:58:34;20.10;99.90
5683;DHT22;2864;49.220;8.654;2023-07-24T06:01:00;20.10;99.90
5683;DHT22;2864;49.220;8.654;2023-07-24T06:03:26;20.10;99.90
5683;DHT22;2864;49.220;8.654;2023-07-24T06:05:55;20.20;99.90
5683;DHT22;2864;49.220;8.654;2023-07-24T06:08:21;20.20;99.90
5683;DHT22;2864;49.220;8.654;2023-07-24T06:10:48;20.30;99.90
5683;DHT22;2864;49.220;8.654;2023-07-24T06:13:17;20.30;99.90
5683;DHT22;2864;49.220;8.654;2023-07-24T06:15:43;20.30;99.90
5683;DHT22;2864;49.220;8.654;2023-07-24T06:18:09;20.30;99.90
5683;DHT22;2864;49.220;8.654;2023-07-24T06:20:35;20.40;99.80
5683;DHT22;2864;49.220;8.654;2023-07-24T06:23:00;20.50;99.90
5683;DHT22;2864;49.220;8.654;2023-07-24T06:25:26;20.60;99.90
5683;DHT22;2864;49.220;8.654;2023-07-24T06:27:51;20.70;99.50
5683;DHT22;2864;49.220;8.654;2023-07-24T06:30:17;20.80;99.20
5683;DHT22;2864;49.220;8.654;2023-07-24T06:32:43;20.80;99.10
5683;DHT22;2864;49.220;8.654;2023-07-24T06:35:09;20.90;98.70
5683;DHT22;2864;49.220;8.654;2023-07-24T06:37:34;21.00;98.60
5683;DHT22;2864;49.220;8.654;2023-07-24T06:40:00;21.30;98.70
5683;DHT22;2864;49.220;8.654;2023-07-24T06:42:25;21.30;98.50
5683;DHT22;2864;49.220;8.654;2023-07-24T06:44:51;21.50;98.20
5683;DHT22;2864;49.220;8.654;2023-07-24T06:47:16;21.70;97.40
5683;DHT22;2864;49.220;8.654;2023-07-24T06:49:42;21.80;97.20
5683;DHT22;2864;49.220;8.654;2023-07-24T06:52:07;22.10;97.10
5683;DHT22;2864;49.220;8.654;2023-07-24T06:54:33;22.00;96.50
5683;DHT22;2864;49.220;8.654;2023-07-24T06:56:58;22.10;96.50
5683;DHT22;2864;49.220;8.654;2023-07-24T06:59:24;24.10;97.00
5683;DHT22;2864;49.220;8.654;2023-07-24T07:01:49;22.60;95.60
5683;DHT22;2864;49.220;8.654;2023-07-24T07:04:16;23.60;96.00
5683;DHT22;2864;49.220;8.654;2023-07-24T07:06:42;22.20;95.70
5683;DHT22;2864;49.220;8.654;2023-07-24T07:09:07;22.30;95.80
5683;DHT22;2864;49.220;8.654;2023-07-24T07:11:33;22.20;95.60
5683;DHT22;2864;49.220;8.654;2023-07-24T07:13:58;22.30;95.80
5683;DHT22;2864;49.220;8.654;2023-07-24T07:16:24;23.10;96.00
5683;DHT22;2864;49.220;8.654;2023-07-24T07:18:49;22.50;95.50
5683;DHT22;2864;49.220;8.654;2023-07-24T07:21:15;22.70;95.40
5683;DHT22;2864;49.220;8.654;2023-07-24T07:23:40;23.60;95.70
5683;DHT22;2864;49.220;8.654;2023-07-24T07:26:06;22.40;94.80
5683;DHT22;2864;49.220;8.654;2023-07-24T07:28:31;22.20;94.60
5683;DHT22;2864;49.220;8.654;2023-07-24T07:30:57;22.20;94.50
5683;DHT22;2864;49.220;8.654;2023-07-24T07:33:22;22.20;95.20
5683;DHT22;2864;49.220;8.654;2023-07-24T07:35:49;22.00;96.40
5683;DHT22;2864;49.220;8.654;2023-07-24T07:38:15;21.90;97.30
5683;DHT22;2864;49.220;8.654;2023-07-24T07:40:40;21.80;97.20
5683;DHT22;2864;49.220;8.654;2023-07-24T07:43:06;21.60;98.40
5683;DHT22;2864;49.220;8.654;2023-07-24T07:45:31;23.00;99.40
5683;DHT22;2864;49.220;8.654;2023-07-24T07:47:57;23.30;99.90
5683;DHT22;2864;49.220;8.654;2023-07-24T07:50:23;21.30;99.50
5683;DHT22;2864;49.220;8.654;2023-07-24T07:52:52;21.20;99.50
5683;DHT22;2864;49.220;8.654;2023-07-24T07:55:21;21.20;99.00
5683;DHT22;2864;49.220;8.654;2023-07-24T07:57:50;21.20;99.20
5683;DHT22;2864;49.220;8.654;2023-07-24T08:00:21;21.20;99.40
5683;DHT22;2864;49.220;8.654;2023-07-24T08:02:54;21.10;99.60
5683;DHT22;2864;49.220;8.654;2023-07-24T08:05:20;21.10;99.70
5683;DHT22;2864;49.220;8.654;2023-07-24T08:07:46;21.00;99.80
5683;DHT22;2864;49.220;8.654;2023-07-24T08:10:12;21.10;99.90
5683;DHT22;2864;49.220;8.654;2023-07-24T08:12:40;21.30;99.90
5683;DHT22;2864;49.220;8.654;2023-07-24T08:15:06;21.60;99.90
5683;DHT22;2864;49.220;8.654;2023-07-24T08:17:41;21.70;99.90
5683;DHT22;2864;49.220;8.654;2023-07-24T08:20:07;21.80;99.30
5683;DHT22;2864;49.220;8.654;2023-07-24T08:22:35;21.80;99.30
5683;DHT22;2864;49.220;8.654;2023-07-24T08:25:01;21.80;99.00
5683;DHT22;2864;49.220;8.654;2023-07-24T08:27:27;21.70;99.60
5683;DHT22;2864;49.220;8.654;2023-07-24T08:29:55;21.80;99.80
5683;DHT22;2864;49.220;8.654;2023-07-24T08:32:20;21.90;99.60
5683;DHT22;2864;49.220;8.654;2023-07-24T08:34:46;22.00;99.70
5683;DHT22;2864;49.220;8.654;2023-07-24T08:37:14;21.90;98.80
5683;DHT22;2864;49.220;8.654;2023-07-24T08:39:40;22.00;99.40
5683;DHT22;2864;49.220;8.654;2023-07-24T08:42:12;21.90;99.30
5683;DHT22;2864;49.220;8.654;2023-07-24T08:44:39;21.80;99.70
5683;DHT22;2864;49.220;8.654;2023-07-24T08:47:09;22.10;99.90
5683;DHT22;2864;49.220;8.654;2023-07-24T08:49:41;22.40;99.20
5683;DHT22;2864;49.220;8.654;2023-07-24T08:52:11;22.80;98.90
5683;DHT22;2864;49.220;8.654;2023-07-24T08:54:37;22.70;97.90
5683;DHT22;2864;49.220;8.654;2023-07-24T08:57:06;22.60;98.50
5683;DHT22;2864;49.220;8.654;2023-07-24T08:59:33;22.80;98.20
5683;DHT22;2864;49.220;8.654;2023-07-24T09:02:02;23.20;98.40
5683;DHT22;2864;49.220;8.654;2023-07-24T09:04:30;23.80;97.50
5683;DHT22;2864;49.220;8.654;2023-07-24T09:06:59;23.60;96.80
5683;DHT22;2864;49.220;8.654;2023-07-24T09:09:29;23.60;96.90
5683;DHT22;2864;49.220;8.654;2023-07-24T09:11:56;23.60;96.60
5683;DHT22;2864;49.220;8.654;2023-07-24T09:14:28;23.80;96.70
5683;DHT22;2864;49.220;8.654;2023-07-24T09:17:06;23.80;96.60
5683;DHT22;2864;49.220;8.654;2023-07-24T09:19:38;23.40;95.90
5683;DHT22;2864;49.220;8.654;2023-07-24T09:22:15;23.00;96.40
5683;DHT22;2864;49.220;8.654;2023-07-24T09:24:51;23.40;96.90
5683;DHT22;2864;49.220;8.654;2023-07-24T09:27:17;23.40;97.20
5683;DHT22;2864;49.220;8.654;2023-07-24T09:29:49;23.50;98.10
5683;DHT22;2864;49.220;8.654;2023-07-24T09:32:31;23.30;97.40
5683;DHT22;2864;49.220;8.654;2023-07-24T09:34:58;23.40;97.10
5683;DHT22;2864;49.220;8.654;2023-07-24T09:39:52;23.30;96.20
5683;DHT22;2864;49.220;8.654;2023-07-24T09:42:18;23.20;96.60
5683;DHT22;2864;49.220;8.654;2023-07-24T09:44:43;23.20;96.70
5683;DHT22;2864;49.220;8.654;2023-07-24T09:47:09;23.40;97.00
5683;DHT22;2864;49.220;8.654;2023-07-24T09:49:35;23.40;96.50
5683;DHT22;2864;49.220;8.654;2023-07-24T09:52:05;23.60;96.70
5683;DHT22;2864;49.220;8.654;2023-07-24T09:54:40;23.50;96.80
5683;DHT22;2864;49.220;8.654;2023-07-24T09:57:11;25.10;97.70
5683;DHT22;2864;49.220;8.654;2023-07-24T09:59:39;23.10;96.80
5683;DHT22;2864;49.220;8.654;2023-07-24T10:02:06;23.00;97.70
5683;DHT22;2864;49.220;8.654;2023-07-24T10:04:35;23.00;97.90
5683;DHT22;2864;49.220;8.654;2023-07-24T10:07:00;22.90;97.90
5683;DHT22;2864;49.220;8.654;2023-07-24T10:09:26;23.00;98.30
5683;DHT22;2864;49.220;8.654;2023-07-24T10:11:52;22.90;98.40
5683;DHT22;2864;49.220;8.654;2023-07-24T10:14:17;22.80;98.20
5683;DHT22;2864;49.220;8.654;2023-07-24T10:16:44;22.80;98.30
5683;DHT22;2864;49.220;8.654;2023-07-24T10:19:16;22.90;98.20
5683;DHT22;2864;49.220;8.654;2023-07-24T10:21:50;22.80;97.30
5683;DHT22;2864;49.220;8.654;2023-07-24T10:24:16;22.80;97.70
5683;DHT22;2864;49.220;8.654;2023-07-24T10:26:42;22.60;98.10
5683;DHT22;2864;49.220;8.654;2023-07-24T10:29:09;22.80;98.40
5683;DHT22;2864;49.220;8.654;2023-07-24T10:31:35;22.70;98.60
5683;DHT22;2864;49.220;8.654;2023-07-24T10:34:05;22.60;99.10
5683;DHT22;2864;49.220;8.654;2023-07-24T10:36:34;22.50;99.30
5683;DHT22;2864;49.220;8.654;2023-07-24T10:39:00;22.70;99.70
5683;DHT22;2864;49.220;8.654;2023-07-24T10:41:37;22.60;99.90
5683;DHT22;2864;49.220;8.654;2023-07-24T10:44:03;22.50;99.90
5683;DHT22;2864;49.220;8.654;2023-07-24T10:46:39;22.40;99.90
5683;DHT22;2864;49.220;8.654;2023-07-24T10:49:05;22.30;99.90
5683;DHT22;2864;49.220;8.654;2023-07-24T10:51:31;22.40;99.90
5683;DHT22;2864;49.220;8.654;2023-07-24T10:56:30;22.60;99.90
5683;DHT22;2864;49.220;8.654;2023-07-24T10:58:56;22.80;99.90
5683;DHT22;2864;49.220;8.654;2023-07-24T11:01:23;23.00;99.90
5683;DHT22;2864;49.220;8.654;2023-07-24T11:03:49;24.40;99.90
5683;DHT22;2864;49.220;8.654;2023-07-24T11:06:18;22.90;99.90
5683;DHT22;2864;49.220;8.654;2023-07-24T11:08:54;23.20;99.90
5683;DHT22;2864;49.220;8.654;2023-07-24T11:11:22;23.30;99.90
5683;DHT22;2864;49.220;8.654;2023-07-24T11:13:48;23.60;99.90
5683;DHT22;2864;49.220;8.654;2023-07-24T11:16:14;23.90;99.90
5683;DHT22;2864;49.220;8.654;2023-07-24T11:18:47;24.50;99.90
5683;DHT22;2864;49.220;8.654;2023-07-24T11:21:13;23.90;99.40
5683;DHT22;2864;49.220;8.654;2023-07-24T11:23:52;25.30;99.90
5683;DHT22;2864;49.220;8.654;2023-07-24T11:26:22;23.90;99.70
5683;DHT22;2864;49.220;8.654;2023-07-24T11:28:51;24.10;99.10
5683;DHT22;2864;49.220;8.654;2023-07-24T11:31:17;24.20;98.50
5683;DHT22;2864;49.220;8.654;2023-07-24T11:33:49;24.20;98.40
5683;DHT22;2864;49.220;8.654;2023-07-24T11:36:15;24.50;98.10
5683;DHT22;2864;49.220;8.654;2023-07-24T11:38:41;24.70;96.40
5683;DHT22;2864;49.220;8.654;2023-07-24T11:41:08;24.40;95.70
5683;DHT22;2864;49.220;8.654;2023-07-24T11:43:34;25.40;96.10
5683;DHT22;2864;49.220;8.654;2023-07-24T11:45:59;25.00;95.50
5683;DHT22;2864;49.220;8.654;2023-07-24T11:48:25;24.70;95.70
5683;DHT22;2864;49.220;8.654;2023-07-24T11:50:54;24.40;94.90
5683;DHT22;2864;49.220;8.654;2023-07-24T11:53:30;24.90;95.30
5683;DHT22;2864;49.220;8.654;2023-07-24T11:56:00;24.20;95.40
5683;DHT22;2864;49.220;8.654;2023-07-24T11:58:28;24.10;95.40
5683;DHT22;2864;49.220;8.654;2023-07-24T12:00:55;24.70;95.20
5683;DHT22;2864;49.220;8.654;2023-07-24T12:03:22;24.70;94.50
5683;DHT22;2864;49.220;8.654;2023-07-24T12:05:49;25.00;93.40
5683;DHT22;2864;49.220;8.654;2023-07-24T12:08:16;24.60;93.20
5683;DHT22;2864;49.220;8.654;2023-07-24T12:10:43;25.90;94.10
5683;DHT22;2864;49.220;8.654;2023-07-24T12:13:09;24.10;93.80
5683;DHT22;2864;49.220;8.654;2023-07-24T12:15:35;23.80;94.10
5683;DHT22;2864;49.220;8.654;2023-07-24T12:18:01;23.90;93.50
5683;DHT22;2864;49.220;8.654;2023-07-24T12:20:28;24.00;93.60
5683;DHT22;2864;49.220;8.654;2023-07-24T12:22:54;23.90;93.70
5683;DHT22;2864;49.220;8.654;2023-07-24T12:25:20;23.70;93.20
5683;DHT22;2864;49.220;8.654;2023-07-24T12:27:46;24.10;93.00
5683;DHT22;2864;49.220;8.654;2023-07-24T12:30:12;24.50;92.80
5683;DHT22;2864;49.220;8.654;2023-07-24T12:32:38;25.00;92.10
5683;DHT22;2864;49.220;8.654;2023-07-24T12:35:04;24.80;91.70
5683;DHT22;2864;49.220;8.654;2023-07-24T12:37:30;25.00;91.20
5683;DHT22;2864;49.220;8.654;2023-07-24T12:39:56;25.00;90.90
5683;DHT22;2864;49.220;8.654;2023-07-24T12:42:21;24.50;90.90
5683;DHT22;2864;49.220;8.654;2023-07-24T12:44:47;24.70;91.10
5683;DHT22;2864;49.220;8.654;2023-07-24T12:47:12;25.10;90.90
5683;DHT22;2864;49.220;8.654;2023-07-24T12:49:38;25.60;90.30
5683;DHT22;2864;49.220;8.654;2023-07-24T12:52:04;25.30;90.70
5683;DHT22;2864;49.220;8.654;2023-07-24T12:54:31;25.10;90.80
5683;DHT22;2864;49.220;8.654;2023-07-24T12:56:57;25.20;90.00
5683;DHT22;2864;49.220;8.654;2023-07-24T12:59:23;25.10;90.40
5683;DHT22;2864;49.220;8.654;2023-07-24T13:01:48;25.70;90.20
5683;DHT22;2864;49.220;8.654;2023-07-24T13:04:14;26.00;87.20
5683;DHT22;2864;49.220;8.654;2023-07-24T13:06:39;26.20;87.00
5683;DHT22;2864;49.220;8.654;2023-07-24T13:09:05;26.70;84.50
5683;DHT22;2864;49.220;8.654;2023-07-24T13:11:31;26.50;83.50
5683;DHT22;2864;49.220;8.654;2023-07-24T13:13:57;26.30;83.60
5683;DHT22;2864;49.220;8.654;2023-07-24T13:16:23;26.20;83.60
5683;DHT22;2864;49.220;8.654;2023-07-24T13:18:49;26.70;82.60
5683;DHT22;2864;49.220;8.654;2023-07-24T13:21:15;27.10;81.80
5683;DHT22;2864;49.220;8.654;2023-07-24T13:23:41;27.80;79.10
5683;DHT22;2864;49.220;8.654;2023-07-24T13:26:07;27.80;78.40
5683;DHT22;2864;49.220;8.654;2023-07-24T13:28:39;28.60;74.80
5683;DHT22;2864;49.220;8.654;2023-07-24T13:31:12;28.40;75.60
5683;DHT22;2864;49.220;8.654;2023-07-24T13:33:38;28.10;75.10
5683;DHT22;2864;49.220;8.654;2023-07-24T13:36:04;28.10;75.00
5683;DHT22;2864;49.220;8.654;2023-07-24T13:38:29;28.30;74.20
5683;DHT22;2864;49.220;8.654;2023-07-24T13:40:55;29.00;73.40
5683;DHT22;2864;49.220;8.654;2023-07-24T13:43:21;30.40;71.10
5683;DHT22;2864;49.220;8.654;2023-07-24T13:45:46;30.60;70.80
5683;DHT22;2864;49.220;8.654;2023-07-24T13:48:12;31.70;68.50
5683;DHT22;2864;49.220;8.654;2023-07-24T13:50:37;31.90;65.70
5683;DHT22;2864;49.220;8.654;2023-07-24T13:53:03;31.40;66.10
5683;DHT22;2864;49.220;8.654;2023-07-24T13:55:28;31.00;66.80
5683;DHT22;2864;49.220;8.654;2023-07-24T13:57:54;31.30;66.30
5683;DHT22;2864;49.220;8.654;2023-07-24T14:00:19;32.30;64.20
5683;DHT22;2864;49.220;8.654;2023-07-24T14:02:45;32.60;64.10
5683;DHT22;2864;49.220;8.654;2023-07-24T14:05:11;32.00;62.50
5683;DHT22;2864;49.220;8.654;2023-07-24T14:07:36;31.70;62.30
5683;DHT22;2864;49.220;8.654;2023-07-24T14:10:02;31.90;62.60
5683;DHT22;2864;49.220;8.654;2023-07-24T14:12:27;32.40;62.20
5683;DHT22;2864;49.220;8.654;2023-07-24T14:14:53;32.90;62.10
5683;DHT22;2864;49.220;8.654;2023-07-24T14:17:19;35.60;58.90
5683;DHT22;2864;49.220;8.654;2023-07-24T14:19:44;33.70;59.80
5683;DHT22;2864;49.220;8.654;2023-07-24T14:22:10;31.50;61.30
5683;DHT22;2864;49.220;8.654;2023-07-24T14:24:36;32.10;61.80
5683;DHT22;2864;49.220;8.654;2023-07-24T14:27:01;32.60;61.00
5683;DHT22;2864;49.220;8.654;2023-07-24T14:29:27;33.80;60.80
5683;DHT22;2864;49.220;8.654;2023-07-24T14:31:52;32.10;60.70
5683;DHT22;2864;49.220;8.654;2023-07-24T14:34:18;30.40;62.40
5683;DHT22;2864;49.220;8.654;2023-07-24T14:36:43;28.20;66.50
5683;DHT22;2864;49.220;8.654;2023-07-24T14:39:09;27.10;68.50
5683;DHT22;2864;49.220;8.654;2023-07-24T14:41:35;26.90;69.30
5683;DHT22;2864;49.220;8.654;2023-07-24T14:44:00;26.10;71.00
5683;DHT22;2864;49.220;8.654;2023-07-24T14:46:26;25.20;73.60
5683;DHT22;2864;49.220;8.654;2023-07-24T14:48:51;24.80;74.10
5683;DHT22;2864;49.220;8.654;2023-07-24T14:51:17;24.60;78.10
5683;DHT22;2864;49.220;8.654;2023-07-24T14:53:43;24.10;81.90
5683;DHT22;2864;49.220;8.654;2023-07-24T14:56:08;23.30;88.60
5683;DHT22;2864;49.220;8.654;2023-07-24T14:58:34;23.30;91.50
5683;DHT22;2864;49.220;8.654;2023-07-24T15:00:59;22.50;91.50
5683;DHT22;2864;49.220;8.654;2023-07-24T15:03:25;22.30;94.70
5683;DHT22;2864;49.220;8.654;2023-07-24T15:05:50;21.60;99.90
5683;DHT22;2864;49.220;8.654;2023-07-24T15:08:17;21.00;99.90
5683;DHT22;2864;49.220;8.654;2023-07-24T15:10:43;20.80;99.90
5683;DHT22;2864;49.220;8.654;2023-07-24T15:13:09;20.60;99.90
5683;DHT22;2864;49.220;8.654;2023-07-24T15:15:35;20.60;99.90
5683;DHT22;2864;49.220;8.654;2023-07-24T15:18:01;20.80;99.90
5683;DHT22;2864;49.220;8.654;2023-07-24T15:20:27;20.60;99.90
5683;DHT22;2864;49.220;8.654;2023-07-24T15:22:52;20.70;99.90
5683;DHT22;2864;49.220;8.654;2023-07-24T15:25:21;20.80;99.90
5683;DHT22;2864;49.220;8.654;2023-07-24T15:27:46;21.00;99.90
5683;DHT22;2864;49.220;8.654;2023-07-24T15:30:12;20.90;99.90
5683;DHT22;2864;49.220;8.654;2023-07-24T15:32:38;20.90;99.90
5683;DHT22;2864;49.220;8.654;2023-07-24T15:35:04;21.90;99.90
5683;DHT22;2864;49.220;8.654;2023-07-24T15:37:30;21.20;99.90
5683;DHT22;2864;49.220;8.654;2023-07-24T15:39:57;21.70;99.90
5683;DHT22;2864;49.220;8.654;2023-07-24T15:42:23;22.70;99.90
5683;DHT22;2864;49.220;8.654;2023-07-24T15:44:50;23.90;99.90
5683;DHT22;2864;49.220;8.654;2023-07-24T15:47:16;25.50;99.90
5683;DHT22;2864;49.220;8.654;2023-07-24T15:49:42;26.80;99.90
5683;DHT22;2864;49.220;8.654;2023-07-24T15:52:08;28.60;93.70
5683;DHT22;2864;49.220;8.654;2023-07-24T15:54:34;27.10;94.40
5683;DHT22;2864;49.220;8.654;2023-07-24T15:57:00;27.40;93.30
5683;DHT22;2864;49.220;8.654;2023-07-24T15:59:25;29.20;90.80
5683;DHT22;2864;49.220;8.654;2023-07-24T16:01:51;29.10;88.30